Time;durP1;ratioP1;P1;durP2;ratioP2;P2;SDS_P1;SDS_P2;PMS_P1;PMS_P2;Temp;Humidity;BMP_temperature;BMP_pressure;BME280_temperature;BME280_humidity;BME280_pressure;Samples;Min_cycle;Max_cycle;Signal;HPM_P1;HPM_P2
2021/03/11 00:00:52;;;;;;;21.42;15.52;;;;;;;;;;5087926;28;20039;-85
2021/03/11 00:03:23;;;;;;;19.38;14.45;;;;;;;;;;5106400;28;20024;-83
2021/03/11 00:05:49;;;;;;;26.10;16.00;;;;;;;;;;5105686;28;20029;-88
2021/03/11 00:08:15;;;;;;;21.48;15.25;;;;;;;;;;5089419;28;20020;-81
2021/03/11 00:10:48;;;;;;;22.38;16.08;;;;;;;;;;5090826;28;20032;-84
2021/03/11 00:13:14;;;;;;;20.90;15.48;;;;;;;;;;5089780;28;20069;-83
2021/03/11 00:15:41;;;;;;;19.23;14.10;;;;;;;;;;5096115;28;20100;-85
2021/03/11 00:18:08;;;;;;;19.52;14.88;;;;;;;;;;5078476;28;20046;-84
2021/03/11 00:20:35;;;;;;;22.88;15.60;;;;;;;;;;5090201;28;20321;-86
2021/03/11 00:23:01;;;;;;;18.83;14.07;;;;;;;;;;5081621;28;20028;-86
2021/03/11 00:25:31;;;;;;;19.75;14.15;;;;;;;;;;5089927;28;20043;-85
2021/03/11 00:27:59;;;;;;;;;;;;;;;;;;5096229;28;20023;-85
2021/03/11 00:30:26;;;;;;;18.65;14.80;;;;;;;;;;5096382;28;19919;-85
2021/03/11 00:32:52;;;;;;;19.75;14.43;;;;;;;;;;5095569;28;20118;-85
2021/03/11 00:35:19;;;;;;;19.88;14.40;;;;;;;;;;5095335;28;20024;-83
2021/03/11 00:37:49;;;;;;;17.10;13.77;;;;;;;;;;5080491;28;20047;-85
2021/03/11 00:40:16;;;;;;;19.92;14.57;;;;;;;;;;5058600;28;20028;-83
2021/03/11 00:42:43;;;;;;;18.95;14.30;;;;;;;;;;5081542;28;20119;-85
2021/03/11 00:45:09;;;;;;;18.63;14.10;;;;;;;;;;5080157;28;20023;-83
2021/03/11 00:47:36;;;;;;;18.10;14.43;;;;;;;;;;5095505;28;20427;-82
2021/03/11 00:50:03;;;;;;;19.33;14.38;;;;;;;;;;5095858;28;20096;-85
2021/03/11 00:52:30;;;;;;;16.60;13.43;;;;;;;;;;5084874;28;20032;-82
2021/03/11 00:54:59;;;;;;;22.65;14.45;;;;;;;;;;5095422;28;20082;-85
2021/03/11 00:57:25;;;;;;;20.38;14.13;;;;;;;;;;5080701;28;20039;-84
2021/03/11 00:59:51;;;;;;;20.60;14.20;;;;;;;;;;5092523;28;20034;-85
2021/03/11 01:02:17;;;;;;;21.92;15.23;;;;;;;;;;5090409;28;20039;-84
2021/03/11 01:04:43;;;;;;;19.42;14.15;;;;;;;;;;5078355;28;20028;-87
2021/03/11 01:07:10;;;;;;;17.02;13.52;;;;;;;;;;5082611;28;20080;-85
2021/03/11 01:09:38;;;;;;;18.98;14.07;;;;;;;;;;5079799;28;20032;-86
2021/03/11 01:12:05;;;;;;;20.50;14.35;;;;;;;;;;5097981;28;20096;-83
2021/03/11 01:14:31;;;;;;;23.52;16.02;;;;;;;;;;5098929;28;20032;-86
2021/03/11 01:16:58;;;;;;;18.80;13.90;;;;;;;;;;5097381;28;20074;-86
2021/03/11 01:19:24;;;;;;;18.73;14.48;;;;;;;;;;5086999;28;20024;-85
2021/03/11 01:21:50;;;;;;;17.48;13.43;;;;;;;;;;5099215;28;20024;-84
2021/03/11 01:24:16;;;;;;;18.52;13.20;;;;;;;;;;5081402;28;20063;-83
2021/03/11 01:26:42;;;;;;;19.73;14.38;;;;;;;;;;5081120;28;20119;-83
2021/03/11 01:29:09;;;;;;;18.83;14.75;;;;;;;;;;5080861;28;20032;-86
2021/03/11 01:31:35;;;;;;;18.92;13.57;;;;;;;;;;5098515;28;20032;-85
2021/03/11 01:34:01;;;;;;;16.98;12.88;;;;;;;;;;5091874;28;20020;-84
2021/03/11 01:36:28;;;;;;;19.60;14.88;;;;;;;;;;5088917;28;20063;-83
2021/03/11 01:38:54;;;;;;;20.38;15.00;;;;;;;;;;5098144;28;20148;-85
2021/03/11 01:41:21;;;;;;;23.33;16.00;;;;;;;;;;5092387;28;20024;-84
2021/03/11 01:43:47;;;;;;;19.45;14.50;;;;;;;;;;5084029;28;20032;-85
2021/03/11 01:46:13;;;;;;;19.77;14.82;;;;;;;;;;5085225;28;20069;-84
2021/03/11 01:48:39;;;;;;;18.38;14.02;;;;;;;;;;5081172;28;20028;-84
2021/03/11 01:51:06;;;;;;;18.15;14.48;;;;;;;;;;5088894;28;20024;-85
2021/03/11 01:53:32;;;;;;;22.27;16.42;;;;;;;;;;5081161;28;20031;-83
2021/03/11 01:56:01;;;;;;;20.65;14.73;;;;;;;;;;5095491;28;20023;-84
2021/03/11 01:58:27;;;;;;;20.02;14.35;;;;;;;;;;5083833;28;20074;-84
2021/03/11 02:00:54;;;;;;;17.38;13.27;;;;;;;;;;5098658;28;20043;-85
2021/03/11 02:03:20;;;;;;;17.80;13.98;;;;;;;;;;5080990;28;20320;-85
2021/03/11 02:05:48;;;;;;;20.63;14.57;;;;;;;;;;5080504;28;20335;-86
2021/03/11 02:08:15;;;;;;;21.00;13.90;;;;;;;;;;5080416;28;20028;-85
2021/03/11 02:10:41;;;;;;;17.63;14.30;;;;;;;;;;5080083;28;20032;-83
2021/03/11 02:13:16;;;;;;;21.80;13.63;;;;;;;;;;5080776;28;20028;-84
2021/03/11 02:15:46;;;;;;;23.75;14.60;;;;;;;;;;5079770;28;20028;-87
2021/03/11 02:18:21;;;;;;;18.42;13.50;;;;;;;;;;5079893;28;20044;-87
2021/03/11 02:20:52;;;;;;;19.45;13.80;;;;;;;;;;5080429;28;20028;-84
2021/03/11 02:23:30;;;;;;;20.08;12.73;;;;;;;;;;5081281;28;20071;-85
2021/03/11 02:26:02;;;;;;;23.58;13.20;;;;;;;;;;5080397;28;20039;-84
2021/03/11 02:28:32;;;;;;;17.80;12.88;;;;;;;;;;5083821;28;20081;-85
2021/03/11 02:30:59;;;;;;;20.95;14.02;;;;;;;;;;5098192;28;20039;-86
2021/03/11 02:33:26;;;;;;;18.98;13.70;;;;;;;;;;5095945;28;20033;-86
2021/03/11 02:35:53;;;;;;;20.10;13.05;;;;;;;;;;5097430;28;20066;-85
2021/03/11 02:38:20;;;;;;;15.88;12.75;;;;;;;;;;5097629;28;20392;-84
2021/03/11 02:40:47;;;;;;;17.08;11.63;;;;;;;;;;5097796;28;20032;-85
2021/03/11 02:43:13;;;;;;;16.85;11.60;;;;;;;;;;5097123;28;20035;-84
2021/03/11 02:45:40;;;;;;;16.38;10.82;;;;;;;;;;5097463;28;20036;-85
2021/03/11 02:48:07;;;;;;;15.90;11.93;;;;;;;;;;5096569;28;20048;-86
2021/03/11 02:50:35;;;;;;;13.32;10.52;;;;;;;;;;5096792;28;20031;-87
2021/03/11 02:53:02;;;;;;;14.02;10.77;;;;;;;;;;5095555;28;20027;-87
2021/03/11 02:55:29;;;;;;;17.27;12.48;;;;;;;;;;5095498;28;20328;-85
2021/03/11 02:57:56;;;;;;;15.93;10.57;;;;;;;;;;5095346;28;20038;-88
2021/03/11 03:03:27;;;;;;;16.23;11.02;;;;;;;;;;5097579;28;20492;-86
2021/03/11 03:05:53;;;;;;;12.88;9.52;;;;;;;;;;5096349;28;20027;-83
2021/03/11 03:08:19;;;;;;;13.45;9.25;;;;;;;;;;5097355;28;20340;-82
2021/03/11 03:10:46;;;;;;;11.90;8.73;;;;;;;;;;5096833;28;20330;-84
2021/03/11 03:13:14;;;;;;;12.57;9.90;;;;;;;;;;5096595;28;20028;-85
2021/03/11 03:15:41;;;;;;;13.85;9.75;;;;;;;;;;5097979;28;20057;-85
2021/03/11 03:18:07;;;;;;;13.85;9.30;;;;;;;;;;5097568;28;20024;-85
2021/03/11 03:20:33;;;;;;;11.73;8.23;;;;;;;;;;5097892;28;20024;-84
2021/03/11 03:23:03;;;;;;;10.70;8.27;;;;;;;;;;5097031;28;20028;-84
2021/03/11 03:25:30;;;;;;;14.05;8.38;;;;;;;;;;5097089;28;20028;-83
2021/03/11 03:27:56;;;;;;;11.40;8.10;;;;;;;;;;5095299;28;20070;-85
2021/03/11 03:30:22;;;;;;;9.77;7.22;;;;;;;;;;5096598;28;20028;-82
2021/03/11 03:32:48;;;;;;;7.55;6.68;;;;;;;;;;5097211;28;20020;-83
2021/03/11 03:35:15;;;;;;;10.60;7.53;;;;;;;;;;5095583;28;20453;-85
2021/03/11 03:37:42;;;;;;;8.68;6.72;;;;;;;;;;5096036;28;20047;-85
2021/03/11 03:40:14;;;;;;;8.98;6.78;;;;;;;;;;5096773;28;20031;-85
2021/03/11 03:42:42;;;;;;;8.43;6.88;;;;;;;;;;5096230;28;20122;-83
2021/03/11 03:45:11;;;;;;;9.70;6.35;;;;;;;;;;5095853;28;20134;-83
2021/03/11 03:47:38;;;;;;;6.88;5.57;;;;;;;;;;5097249;28;20028;-84
2021/03/11 03:50:05;;;;;;;8.40;5.70;;;;;;;;;;5096797;28;20047;-82
2021/03/11 03:52:32;;;;;;;7.20;6.05;;;;;;;;;;5096841;28;20028;-84
2021/03/11 03:54:59;;;;;;;6.85;5.60;;;;;;;;;;5096056;28;20028;-83
2021/03/11 03:57:26;;;;;;;8.15;5.10;;;;;;;;;;5096846;28;20032;-81
2021/03/11 03:59:53;;;;;;;5.68;4.53;;;;;;;;;;5096468;28;20024;-84
2021/03/11 04:02:20;;;;;;;7.13;5.22;;;;;;;;;;5096681;28;20471;-84
2021/03/11 04:04:47;;;;;;;6.93;5.13;;;;;;;;;;5095654;28;20035;-82
2021/03/11 04:07:16;;;;;;;5.85;4.88;;;;;;;;;;5096145;28;20126;-84
2021/03/11 04:09:43;;;;;;;6.45;5.10;;;;;;;;;;5096923;28;20032;-83
2021/03/11 04:12:09;;;;;;;5.90;4.85;;;;;;;;;;5096184;28;20032;-83
2021/03/11 04:14:36;;;;;;;6.20;5.40;;;;;;;;;;5096498;28;20028;-83
2021/03/11 04:17:04;;;;;;;5.97;4.80;;;;;;;;;;5096530;28;20024;-83
2021/03/11 04:19:31;;;;;;;5.95;4.80;;;;;;;;;;5096808;28;20131;-84
2021/03/11 04:21:57;;;;;;;5.18;4.13;;;;;;;;;;5095770;28;20119;-83
2021/03/11 04:24:23;;;;;;;5.97;4.90;;;;;;;;;;5096818;28;20070;-82
2021/03/11 04:26:50;;;;;;;5.38;4.30;;;;;;;;;;5095591;28;20028;-83
2021/03/11 04:29:16;;;;;;;5.43;4.57;;;;;;;;;;5095842;28;20028;-87
2021/03/11 04:31:42;;;;;;;4.88;4.28;;;;;;;;;;5095414;28;20036;-84
2021/03/11 04:34:08;;;;;;;5.18;4.30;;;;;;;;;;5095608;28;20077;-83
2021/03/11 04:36:35;;;;;;;5.15;4.05;;;;;;;;;;5095734;28;20128;-83
2021/03/11 04:39:01;;;;;;;6.30;4.13;;;;;;;;;;5097266;28;20039;-83
2021/03/11 04:41:28;;;;;;;5.10;3.90;;;;;;;;;;5099153;28;20028;-84
2021/03/11 04:43:55;;;;;;;4.90;3.53;;;;;;;;;;5099363;28;20051;-84
2021/03/11 04:46:22;;;;;;;7.22;4.07;;;;;;;;;;5100177;28;20092;-85
2021/03/11 04:48:48;;;;;;;5.93;3.97;;;;;;;;;;5099351;28;20038;-82
2021/03/11 04:51:18;;;;;;;3.88;3.47;;;;;;;;;;5099621;28;20028;-84
2021/03/11 04:53:45;;;;;;;4.38;3.67;;;;;;;;;;5098951;28;20156;-84
2021/03/11 04:56:12;;;;;;;5.22;3.78;;;;;;;;;;5099928;28;20077;-85
2021/03/11 04:58:39;;;;;;;4.25;3.75;;;;;;;;;;5098731;28;20042;-85
2021/03/11 05:01:13;;;;;;;5.22;4.57;;;;;;;;;;5098755;28;20024;-84
2021/03/11 05:03:43;;;;;;;3.90;3.50;;;;;;;;;;5094258;28;20131;-85
2021/03/11 05:06:09;;;;;;;5.22;3.80;;;;;;;;;;5082039;28;20089;-84
2021/03/11 05:08:35;;;;;;;4.70;3.72;;;;;;;;;;5099127;28;20034;-84
2021/03/11 05:11:01;;;;;;;4.28;3.63;;;;;;;;;;5080990;28;20032;-85
2021/03/11 05:13:30;;;;;;;4.30;3.90;;;;;;;;;;5081368;28;20036;-83
2021/03/11 05:15:57;;;;;;;4.78;4.20;;;;;;;;;;5078703;28;20032;-84
2021/03/11 05:18:23;;;;;;;4.28;3.88;;;;;;;;;;5086272;28;20063;-84
2021/03/11 05:20:51;;;;;;;4.18;3.78;;;;;;;;;;5068985;28;20024;-82
2021/03/11 05:23:18;;;;;;;5.85;4.18;;;;;;;;;;5089475;28;20016;-84
2021/03/11 05:25:44;;;;;;;4.22;3.75;;;;;;;;;;5077957;28;20155;-85
2021/03/11 05:28:10;;;;;;;3.97;3.50;;;;;;;;;;5065341;28;20023;-84
2021/03/11 05:30:36;;;;;;;4.13;3.47;;;;;;;;;;5069926;28;20039;-84
2021/03/11 05:33:02;;;;;;;5.18;4.13;;;;;;;;;;5097472;28;20055;-84
2021/03/11 05:35:28;;;;;;;4.53;4.07;;;;;;;;;;5059610;28;20223;-85
2021/03/11 05:37:56;;;;;;;5.68;4.45;;;;;;;;;;5065717;28;20153;-83
2021/03/11 05:40:23;;;;;;;5.47;3.75;;;;;;;;;;5082038;28;20078;-85
2021/03/11 05:42:50;;;;;;;4.03;3.58;;;;;;;;;;5086312;28;20043;-84
2021/03/11 05:45:16;;;;;;;5.07;3.92;;;;;;;;;;5088225;28;20035;-84
2021/03/11 05:47:43;;;;;;;4.63;4.15;;;;;;;;;;5090158;28;20016;-85
2021/03/11 05:50:09;;;;;;;4.20;3.15;;;;;;;;;;5087725;28;20034;-84
2021/03/11 05:52:36;;;;;;;4.68;4.07;;;;;;;;;;5104840;28;20020;-83
2021/03/11 05:55:03;;;;;;;5.90;4.45;;;;;;;;;;5081664;28;20272;-83
2021/03/11 05:57:29;;;;;;;4.40;4.00;;;;;;;;;;5077715;28;20115;-84
2021/03/11 05:59:56;;;;;;;7.45;4.55;;;;;;;;;;5079194;28;20024;-86
2021/03/11 06:02:25;;;;;;;7.70;3.97;;;;;;;;;;5079765;28;20359;-83
2021/03/11 06:04:55;;;;;;;5.63;4.28;;;;;;;;;;5086037;28;20031;-83
2021/03/11 06:07:22;;;;;;;4.53;3.80;;;;;;;;;;5114565;28;20038;-84
2021/03/11 06:09:50;;;;;;;4.25;3.85;;;;;;;;;;5079259;28;20118;-84
2021/03/11 06:12:16;;;;;;;4.43;3.70;;;;;;;;;;5080960;28;20031;-84
2021/03/11 06:14:43;;;;;;;4.20;3.80;;;;;;;;;;5095502;28;20032;-84
2021/03/11 06:17:10;;;;;;;6.07;3.95;;;;;;;;;;5095515;28;20046;-86
2021/03/11 06:19:36;;;;;;;6.25;4.30;;;;;;;;;;5100534;28;20031;-85
2021/03/11 06:22:03;;;;;;;6.25;4.47;;;;;;;;;;5079011;28;20439;-86
2021/03/11 06:24:30;;;;;;;7.80;4.25;;;;;;;;;;5081632;28;20047;-86
2021/03/11 06:26:56;;;;;;;6.15;4.25;;;;;;;;;;5080862;28;20024;-84
2021/03/11 06:29:40;;;;;;;4.93;4.40;;;;;;;;;;5098728;28;20024;-83
2021/03/11 06:32:08;;;;;;;4.05;3.47;;;;;;;;;;5079794;28;20028;-85
2021/03/11 06:34:43;;;;;;;6.53;4.30;;;;;;;;;;5079559;28;20100;-83
2021/03/11 06:37:13;;;;;;;5.45;4.13;;;;;;;;;;5077763;28;20032;-85
2021/03/11 06:39:39;;;;;;;;;;;;;;;;;;5097150;28;20035;-84
2021/03/11 06:42:06;;;;;;;5.93;3.85;;;;;;;;;;5100854;28;19912;-85
2021/03/11 06:44:34;;;;;;;5.22;3.88;;;;;;;;;;5092689;28;20027;-84
2021/03/11 06:47:01;;;;;;;4.38;3.53;;;;;;;;;;5077744;28;20036;-84
2021/03/11 06:49:28;;;;;;;3.97;3.15;;;;;;;;;;5096408;28;20077;-83
2021/03/11 06:52:13;;;;;;;5.82;3.75;;;;;;;;;;5078246;28;20043;-84
2021/03/11 06:54:58;;;;;;;4.75;4.03;;;;;;;;;;5097761;28;20031;-83
2021/03/11 06:57:42;;;;;;;4.35;3.58;;;;;;;;;;5083385;28;20036;-85
2021/03/11 07:00:17;;;;;;;5.13;3.92;;;;;;;;;;5099860;28;20405;-83
2021/03/11 07:02:53;;;;;;;4.72;3.80;;;;;;;;;;5079254;28;20039;-86
2021/03/11 07:05:19;;;;;;;4.82;4.05;;;;;;;;;;5097929;28;20081;-82
2021/03/11 07:07:46;;;;;;;4.70;3.70;;;;;;;;;;5086936;28;20031;-84
2021/03/11 07:10:23;;;;;;;3.92;3.42;;;;;;;;;;5087890;28;20053;-84
2021/03/11 07:12:50;;;;;;;4.28;3.50;;;;;;;;;;5080363;28;20024;-82
2021/03/11 07:15:16;;;;;;;5.25;3.70;;;;;;;;;;5089065;28;20077;-85
2021/03/11 07:17:42;;;;;;;4.53;3.70;;;;;;;;;;5079289;28;20032;-81
2021/03/11 07:20:08;;;;;;;6.05;4.63;;;;;;;;;;5079878;28;20439;-83
2021/03/11 07:22:35;;;;;;;5.40;4.18;;;;;;;;;;5084195;28;20447;-84
2021/03/11 07:25:01;;;;;;;4.70;3.50;;;;;;;;;;5085864;28;20036;-84
2021/03/11 07:27:41;;;;;;;4.18;3.65;;;;;;;;;;5083696;28;20054;-84
2021/03/11 07:30:08;;;;;;;4.80;3.47;;;;;;;;;;5101357;28;20027;-85
2021/03/11 07:32:35;;;;;;;4.70;4.10;;;;;;;;;;5089608;28;20028;-84
2021/03/11 07:35:05;;;;;;;5.75;4.25;;;;;;;;;;5095092;28;20028;-85
2021/03/11 07:37:33;;;;;;;4.85;4.18;;;;;;;;;;5097036;28;20046;-84
2021/03/11 07:39:59;;;;;;;4.38;3.97;;;;;;;;;;5098038;28;20028;-83
2021/03/11 07:42:26;;;;;;;8.55;3.95;;;;;;;;;;5097856;28;20115;-85
2021/03/11 07:44:52;;;;;;;4.65;4.10;;;;;;;;;;5086284;28;20032;-85
2021/03/11 07:47:19;;;;;;;8.57;4.80;;;;;;;;;;5084883;28;20028;-84
2021/03/11 07:49:46;;;;;;;6.70;3.88;;;;;;;;;;5082776;28;20028;-85
2021/03/11 07:52:12;;;;;;;4.28;3.88;;;;;;;;;;5087690;28;20091;-84
2021/03/11 07:54:39;;;;;;;5.55;4.82;;;;;;;;;;5078675;28;20059;-83
2021/03/11 07:57:05;;;;;;;7.28;4.47;;;;;;;;;;5085710;28;20109;-84
2021/03/11 07:59:32;;;;;;;6.13;4.53;;;;;;;;;;5092499;28;20035;-85
2021/03/11 08:02:09;;;;;;;4.95;4.05;;;;;;;;;;5097385;28;20086;-85
2021/03/11 08:04:40;;;;;;;8.15;4.25;;;;;;;;;;5095802;28;20028;-85
2021/03/11 08:07:20;;;;;;;6.82;4.38;;;;;;;;;;5098823;28;20016;-84
2021/03/11 08:09:46;;;;;;;;;;;;;;;;;;5113146;28;20024;-84
2021/03/11 08:12:28;;;;;;;6.13;4.10;;;;;;;;;;5101616;28;19923;-85
2021/03/11 08:14:54;;;;;;;4.60;4.00;;;;;;;;;;5113153;28;20139;-84
2021/03/11 08:17:40;;;;;;;4.18;3.63;;;;;;;;;;5099913;28;20055;-87
2021/03/11 08:20:26;;;;;;;5.70;4.20;;;;;;;;;;5111458;28;20048;-86
2021/03/11 08:25:33;;;;;;;5.93;4.25;;;;;;;;;;5114674;28;20028;-84
2021/03/11 08:28:00;;;;;;;5.70;3.58;;;;;;;;;;5088958;28;20053;-84
2021/03/11 08:30:46;;;;;;;3.88;3.47;;;;;;;;;;5105535;28;20020;-84
2021/03/11 08:33:35;;;;;;;5.68;4.00;;;;;;;;;;5092589;28;20036;-85
2021/03/11 08:36:02;;;;;;;7.35;4.22;;;;;;;;;;5094612;28;20358;-85
2021/03/11 08:38:31;;;;;;;4.95;3.78;;;;;;;;;;5079143;28;20044;-84
2021/03/11 08:41:05;;;;;;;5.03;3.70;;;;;;;;;;5092695;28;20033;-85
2021/03/11 08:43:43;;;;;;;4.20;3.50;;;;;;;;;;5080673;28;20120;-84
2021/03/11 08:46:10;;;;;;;5.80;3.50;;;;;;;;;;5082417;28;20027;-85
2021/03/11 08:48:40;;;;;;;4.45;3.45;;;;;;;;;;5093407;28;20074;-84
2021/03/11 08:51:33;;;;;;;6.30;3.75;;;;;;;;;;5083491;28;20019;-84
2021/03/11 08:53:59;;;;;;;5.60;3.28;;;;;;;;;;5074347;28;20027;-84
2021/03/11 08:56:28;;;;;;;5.60;3.22;;;;;;;;;;5088789;28;20343;-85
2021/03/11 08:58:54;;;;;;;6.97;3.67;;;;;;;;;;5095387;28;20036;-85
2021/03/11 09:01:29;;;;;;;4.03;3.17;;;;;;;;;;5080887;28;20032;-84
2021/03/11 09:03:56;;;;;;;4.47;3.00;;;;;;;;;;5083171;28;20058;-84
2021/03/11 09:06:43;;;;;;;3.95;2.97;;;;;;;;;;5079127;28;20029;-85
2021/03/11 09:09:09;;;;;;;4.82;3.25;;;;;;;;;;5080279;28;20036;-83
2021/03/11 09:11:35;;;;;;;7.40;4.10;;;;;;;;;;5072930;28;20048;-84
2021/03/11 09:14:11;;;;;;;6.03;3.20;;;;;;;;;;5092850;28;20103;-86
2021/03/11 09:16:38;;;;;;;6.00;2.80;;;;;;;;;;5073367;28;20026;-86
2021/03/11 09:19:04;;;;;;;7.43;3.60;;;;;;;;;;5071868;28;20028;-84
2021/03/11 09:21:44;;;;;;;8.27;3.33;;;;;;;;;;5075913;28;20083;-85
2021/03/11 09:24:20;;;;;;;7.07;3.72;;;;;;;;;;5083568;28;20028;-84
2021/03/11 09:26:46;;;;;;;9.45;3.40;;;;;;;;;;5083334;28;20131;-84
2021/03/11 09:29:14;;;;;;;6.93;3.33;;;;;;;;;;5081314;28;20071;-84
2021/03/11 09:31:40;;;;;;;4.90;2.95;;;;;;;;;;5086896;28;20031;-85
2021/03/11 09:34:07;;;;;;;4.25;2.85;;;;;;;;;;5084277;28;20024;-84
2021/03/11 09:36:34;;;;;;;6.13;3.15;;;;;;;;;;5077386;28;20020;-85
2021/03/11 09:39:07;;;;;;;3.38;2.42;;;;;;;;;;5080089;28;20036;-86
2021/03/11 09:41:36;;;;;;;5.03;3.03;;;;;;;;;;5077260;28;20036;-83
2021/03/11 09:44:05;;;;;;;4.72;2.28;;;;;;;;;;5083811;28;20093;-83
2021/03/11 09:46:32;;;;;;;10.13;2.53;;;;;;;;;;5097484;28;20031;-85
2021/03/11 09:48:58;;;;;;;8.82;2.50;;;;;;;;;;5081384;28;20035;-87
2021/03/11 09:51:28;;;;;;;9.38;3.17;;;;;;;;;;5077266;28;20019;-84
2021/03/11 09:53:57;;;;;;;6.38;2.75;;;;;;;;;;5083338;28;20028;-83
2021/03/11 09:56:24;;;;;;;5.73;2.10;;;;;;;;;;5082874;28;20423;-83
2021/03/11 09:58:51;;;;;;;5.65;2.05;;;;;;;;;;5084255;28;20034;-84
2021/03/11 10:01:26;;;;;;;6.55;1.95;;;;;;;;;;5092256;28;20427;-85
2021/03/11 10:03:54;;;;;;;11.02;2.38;;;;;;;;;;5087563;28;20450;-83
2021/03/11 10:06:20;;;;;;;12.38;2.20;;;;;;;;;;5098972;28;20075;-84
2021/03/11 10:08:47;;;;;;;6.90;1.90;;;;;;;;;;5084868;28;20032;-86
2021/03/11 10:11:17;;;;;;;15.20;2.58;;;;;;;;;;5098480;28;20024;-84
2021/03/11 10:13:50;;;;;;;11.98;2.67;;;;;;;;;;5083923;28;20063;-84
2021/03/11 10:16:36;;;;;;;7.68;2.13;;;;;;;;;;5092100;28;20092;-85
2021/03/11 10:19:07;;;;;;;6.80;2.50;;;;;;;;;;5089842;28;20058;-85
2021/03/11 10:21:47;;;;;;;7.45;2.10;;;;;;;;;;5082785;28;20377;-86
2021/03/11 10:24:14;;;;;;;8.25;1.80;;;;;;;;;;5083364;28;20119;-87
2021/03/11 10:26:46;;;;;;;13.50;2.90;;;;;;;;;;5084128;28;20090;-85
2021/03/11 10:29:12;;;;;;;10.52;3.15;;;;;;;;;;5083588;28;20029;-85
2021/03/11 10:31:38;;;;;;;13.05;3.13;;;;;;;;;;5075370;28;20028;-85
2021/03/11 10:34:09;;;;;;;11.85;2.20;;;;;;;;;;5094314;28;20074;-86
2021/03/11 10:36:37;;;;;;;14.95;2.78;;;;;;;;;;5089260;28;20029;-86
2021/03/11 10:39:12;;;;;;;19.73;2.67;;;;;;;;;;5071598;28;20057;-84
2021/03/11 10:42:00;;;;;;;13.73;2.72;;;;;;;;;;5076429;28;20502;-86
2021/03/11 10:44:27;;;;;;;11.38;2.95;;;;;;;;;;5075237;28;20024;-84
2021/03/11 10:47:12;;;;;;;15.57;2.85;;;;;;;;;;5096622;28;20024;-84
2021/03/11 10:49:39;;;;;;;13.43;3.22;;;;;;;;;;5085079;28;20036;-85
2021/03/11 10:52:07;;;;;;;12.60;2.95;;;;;;;;;;5094600;28;20032;-86
2021/03/11 10:54:34;;;;;;;8.35;2.60;;;;;;;;;;5082710;28;20043;-87
2021/03/11 10:57:06;;;;;;;12.57;2.85;;;;;;;;;;5080078;28;20036;-87
2021/03/11 10:59:46;;;;;;;10.38;2.60;;;;;;;;;;5075927;28;20068;-85
2021/03/11 11:02:16;;;;;;;12.85;2.97;;;;;;;;;;5076946;28;20036;-86
2021/03/11 11:04:43;;;;;;;12.77;4.05;;;;;;;;;;5082235;28;20031;-84
2021/03/11 11:07:12;;;;;;;12.63;3.10;;;;;;;;;;5092705;28;20051;-86
2021/03/11 11:09:52;;;;;;;13.75;3.25;;;;;;;;;;5078274;28;20115;-86
2021/03/11 11:12:19;;;;;;;13.40;3.70;;;;;;;;;;5091871;28;20447;-86
2021/03/11 11:14:48;;;;;;;8.10;2.38;;;;;;;;;;5077248;28;20023;-88
2021/03/11 11:17:17;;;;;;;12.82;3.17;;;;;;;;;;5074805;28;20027;-86
2021/03/11 11:19:44;;;;;;;12.30;3.40;;;;;;;;;;5080113;28;20035;-87
2021/03/11 11:22:13;;;;;;;13.30;3.70;;;;;;;;;;5082691;28;20419;-86
2021/03/11 11:24:49;;;;;;;10.75;2.88;;;;;;;;;;5083275;28;20439;-87
2021/03/11 11:27:16;;;;;;;9.80;2.80;;;;;;;;;;5081185;28;20027;-86
2021/03/11 11:29:42;;;;;;;17.00;4.13;;;;;;;;;;5097650;28;20028;-87
2021/03/11 11:32:08;;;;;;;9.80;2.67;;;;;;;;;;5083152;28;20024;-87
2021/03/11 11:34:34;;;;;;;12.20;2.65;;;;;;;;;;5084535;28;20031;-88
2021/03/11 11:37:01;;;;;;;10.65;3.20;;;;;;;;;;5094066;28;20436;-86
2021/03/11 11:39:27;;;;;;;10.10;3.00;;;;;;;;;;5080211;28;20040;-90
2021/03/11 11:41:53;;;;;;;13.30;3.25;;;;;;;;;;5075901;28;20027;-86
2021/03/11 11:44:21;;;;;;;14.05;3.13;;;;;;;;;;5086048;28;20070;-86
2021/03/11 11:46:47;;;;;;;11.10;2.78;;;;;;;;;;5096597;28;20030;-88
2021/03/11 11:49:13;;;;;;;10.55;2.70;;;;;;;;;;5080320;28;20085;-85
2021/03/11 11:51:51;;;;;;;7.57;2.53;;;;;;;;;;5075036;28;20034;-87
2021/03/11 11:54:18;;;;;;;9.80;3.05;;;;;;;;;;5074080;28;20028;-86
2021/03/11 11:56:55;;;;;;;14.02;3.60;;;;;;;;;;5093246;28;20032;-87
2021/03/11 11:59:22;;;;;;;9.68;2.92;;;;;;;;;;5073679;28;20035;-88
2021/03/11 12:01:51;;;;;;;12.93;2.92;;;;;;;;;;5078276;28;20027;-87
2021/03/11 12:04:18;;;;;;;11.35;2.83;;;;;;;;;;5075368;28;20024;-88
2021/03/11 12:06:56;;;;;;;9.38;2.83;;;;;;;;;;5076575;28;20046;-84
2021/03/11 12:09:22;;;;;;;15.18;3.33;;;;;;;;;;5075876;28;20028;-87
2021/03/11 12:11:49;;;;;;;9.00;2.78;;;;;;;;;;5079780;28;20171;-85
2021/03/11 12:14:16;;;;;;;9.13;3.10;;;;;;;;;;5099126;28;20028;-85
2021/03/11 12:16:43;;;;;;;11.10;3.15;;;;;;;;;;5076898;28;20040;-85
2021/03/11 12:19:10;;;;;;;9.52;2.85;;;;;;;;;;5094237;28;20066;-86
2021/03/11 12:21:38;;;;;;;7.78;2.30;;;;;;;;;;5092258;28;20123;-88
2021/03/11 12:24:10;;;;;;;12.50;3.20;;;;;;;;;;5095654;28;20043;-86
2021/03/11 12:26:37;;;;;;;13.98;3.90;;;;;;;;;;5078965;28;20024;-88
2021/03/11 12:29:07;;;;;;;11.38;2.72;;;;;;;;;;5076714;28;20024;-87
2021/03/11 12:31:34;;;;;;;12.48;3.13;;;;;;;;;;5072444;28;20458;-86
2021/03/11 12:34:03;;;;;;;13.68;3.67;;;;;;;;;;5085054;28;20020;-86
2021/03/11 12:36:32;;;;;;;14.45;2.90;;;;;;;;;;5081543;28;20038;-85
2021/03/11 12:38:59;;;;;;;8.73;2.70;;;;;;;;;;5087953;28;20047;-86
2021/03/11 12:41:26;;;;;;;11.38;2.80;;;;;;;;;;5079642;28;20039;-85
2021/03/11 12:43:52;;;;;;;9.98;2.33;;;;;;;;;;5076607;28;20050;-86
2021/03/11 12:46:19;;;;;;;10.70;2.42;;;;;;;;;;5074655;28;20284;-87
2021/03/11 12:48:48;;;;;;;8.68;2.38;;;;;;;;;;5076340;28;20043;-87
2021/03/11 12:51:19;;;;;;;8.43;3.03;;;;;;;;;;5074828;28;20023;-86
2021/03/11 12:53:45;;;;;;;9.40;2.65;;;;;;;;;;5082918;28;20134;-88
2021/03/11 12:56:11;;;;;;;6.10;2.03;;;;;;;;;;5078695;28;20059;-85
2021/03/11 12:58:38;;;;;;;6.70;2.33;;;;;;;;;;5094993;28;20383;-85
2021/03/11 13:01:04;;;;;;;10.45;2.83;;;;;;;;;;5084617;28;20077;-90
2021/03/11 13:03:32;;;;;;;10.20;2.70;;;;;;;;;;5080185;28;20030;-86
2021/03/11 13:06:02;;;;;;;14.82;2.45;;;;;;;;;;5080259;28;20028;-88
2021/03/11 13:08:30;;;;;;;9.00;2.50;;;;;;;;;;5083685;28;20089;-86
2021/03/11 13:10:57;;;;;;;5.82;2.35;;;;;;;;;;5093410;28;20028;-86
2021/03/11 13:13:26;;;;;;;7.78;2.10;;;;;;;;;;5097917;28;20097;-85
2021/03/11 13:15:52;;;;;;;11.27;2.50;;;;;;;;;;5080805;28;20036;-87
2021/03/11 13:18:19;;;;;;;8.45;2.80;;;;;;;;;;5082508;28;20047;-85
2021/03/11 13:20:45;;;;;;;7.38;2.25;;;;;;;;;;5079915;28;20027;-87
2021/03/11 13:23:11;;;;;;;10.50;2.85;;;;;;;;;;5093420;28;20028;-86
2021/03/11 13:25:39;;;;;;;8.35;2.22;;;;;;;;;;5077410;28;20039;-86
2021/03/11 13:28:05;;;;;;;5.93;2.28;;;;;;;;;;5070665;28;20024;-86
2021/03/11 13:30:31;;;;;;;9.32;2.60;;;;;;;;;;5094586;28;20031;-87
2021/03/11 13:32:57;;;;;;;8.82;2.80;;;;;;;;;;5093941;28;20024;-87
2021/03/11 13:35:26;;;;;;;9.27;3.25;;;;;;;;;;5076185;28;20468;-86
2021/03/11 13:37:52;;;;;;;13.20;2.55;;;;;;;;;;5086409;28;20047;-86
2021/03/11 13:40:19;;;;;;;10.05;2.42;;;;;;;;;;5078034;28;20075;-86
2021/03/11 13:42:45;;;;;;;8.60;2.60;;;;;;;;;;5077192;28;20043;-87
2021/03/11 13:45:12;;;;;;;12.93;2.70;;;;;;;;;;5076801;28;20459;-88
2021/03/11 13:47:38;;;;;;;11.50;3.15;;;;;;;;;;5078562;28;20046;-86
2021/03/11 13:50:07;;;;;;;6.72;2.17;;;;;;;;;;5096790;28;20148;-85
2021/03/11 13:52:33;;;;;;;8.43;2.22;;;;;;;;;;5097145;28;20077;-87
2021/03/11 13:54:59;;;;;;;11.18;2.78;;;;;;;;;;5078161;28;20038;-87
2021/03/11 13:57:25;;;;;;;7.60;2.30;;;;;;;;;;5078354;28;20027;-85
2021/03/11 13:59:51;;;;;;;9.15;2.72;;;;;;;;;;5088495;28;20032;-84
2021/03/11 14:02:19;;;;;;;8.05;2.15;;;;;;;;;;5096642;28;20056;-86
2021/03/11 14:04:46;;;;;;;8.75;2.65;;;;;;;;;;5077594;28;20028;-85
2021/03/11 14:07:13;;;;;;;8.55;2.47;;;;;;;;;;5089004;28;20028;-87
2021/03/11 14:09:39;;;;;;;7.55;2.25;;;;;;;;;;5077115;28;20031;-88
2021/03/11 14:12:06;;;;;;;10.00;2.45;;;;;;;;;;5093158;28;20036;-85
2021/03/11 14:14:32;;;;;;;12.25;3.17;;;;;;;;;;5075704;28;20020;-87
2021/03/11 14:17:00;;;;;;;6.88;2.63;;;;;;;;;;5073521;28;20036;-87
2021/03/11 14:19:27;;;;;;;7.95;2.40;;;;;;;;;;5101576;28;20032;-88
2021/03/11 14:21:56;;;;;;;4.43;2.00;;;;;;;;;;5081488;28;20024;-87
2021/03/11 14:24:25;;;;;;;11.95;2.78;;;;;;;;;;5075776;28;20032;-86
2021/03/11 14:26:51;;;;;;;12.43;2.50;;;;;;;;;;5073864;28;20089;-87
2021/03/11 14:29:17;;;;;;;7.55;2.85;;;;;;;;;;5073776;28;20036;-88
2021/03/11 14:31:49;;;;;;;17.38;2.60;;;;;;;;;;5089464;28;20031;-85
2021/03/11 14:34:21;;;;;;;6.88;2.25;;;;;;;;;;5068129;28;20118;-87
2021/03/11 14:36:47;;;;;;;9.20;2.65;;;;;;;;;;5078262;28;20300;-85
2021/03/11 14:39:14;;;;;;;11.35;3.17;;;;;;;;;;5090134;28;20040;-86
2021/03/11 14:41:40;;;;;;;8.77;2.40;;;;;;;;;;5072634;28;20350;-87
2021/03/11 14:44:07;;;;;;;8.13;2.63;;;;;;;;;;5075895;28;20024;-85
2021/03/11 14:46:33;;;;;;;5.90;1.85;;;;;;;;;;5067428;28;20020;-87
2021/03/11 14:49:00;;;;;;;5.85;1.95;;;;;;;;;;5068352;28;20032;-87